Time;durP1;ratioP1;P1;durP2;ratioP2;P2;SDS_P1;SDS_P2;PMS_P1;PMS_P2;Temp;Humidity;BMP_temperature;BMP_pressure;BME280_temperature;BME280_humidity;BME280_pressure;Samples;Min_cycle;Max_cycle;Signal;HPM_P1;HPM_P2
2021/03/28 00:00:45;;;;;;;4.82;2.03;;;5.00;99.90;;;;;;4845773;29;20137;-77
2021/03/28 00:03:40;;;;;;;4.65;1.25;;;5.00;99.90;;;;;;4847698;29;20077;-77
2021/03/28 00:06:34;;;;;;;4.32;1.10;;;5.00;99.90;;;;;;4879386;29;20045;-78
2021/03/28 00:09:24;;;;;;;5.72;1.90;;;5.00;99.90;;;;;;4854016;29;20494;-78
2021/03/28 00:12:06;;;;;;;2.33;1.27;;;5.10;99.90;;;;;;4847338;29;20121;-77
2021/03/28 00:14:35;;;;;;;3.28;1.30;;;5.10;99.90;;;;;;4861037;29;20072;-77
2021/03/28 00:17:44;;;;;;;3.40;1.55;;;5.10;99.90;;;;;;4845961;29;20090;-77
2021/03/28 00:20:16;;;;;;;2.70;1.67;;;5.20;99.90;;;;;;4854875;29;20413;-77
2021/03/28 00:23:30;;;;;;;5.40;1.17;;;5.10;99.90;;;;;;4859540;29;20045;-76
2021/03/28 00:26:25;;;;;;;3.28;2.28;;;5.10;99.90;;;;;;4773919;29;20135;-76
2021/03/28 00:29:24;;;;;;;4.93;1.80;;;4.90;99.90;;;;;;4773753;29;20100;-77
2021/03/28 00:32:02;;;;;;;4.55;1.17;;;4.80;99.90;;;;;;4831565;29;20053;-77
2021/03/28 00:34:40;;;;;;;3.15;1.35;;;4.70;99.90;;;;;;4858013;29;20048;-79
2021/03/28 00:37:12;;;;;;;5.03;1.42;;;4.70;99.90;;;;;;4864869;29;20067;-77
2021/03/28 00:39:47;;;;;;;3.67;1.48;;;4.70;99.90;;;;;;4855586;29;20057;-81
2021/03/28 00:42:39;;;;;;;5.38;1.42;;;4.60;99.90;;;;;;4842973;29;20050;-77
2021/03/28 00:45:10;;;;;;;1.83;1.10;;;4.60;99.90;;;;;;4874158;29;20069;-79
2021/03/28 00:47:38;;;;;;;2.55;1.30;;;4.60;99.90;;;;;;4863927;29;20041;-79
2021/03/28 00:50:08;;;;;;;3.88;1.40;;;4.60;99.90;;;;;;4865955;29;20081;-78
2021/03/28 00:52:49;;;;;;;3.72;1.35;;;4.60;99.90;;;;;;4852820;29;20049;-77
2021/03/28 00:55:23;;;;;;;2.97;1.05;;;4.60;99.90;;;;;;4842929;29;20578;-77
2021/03/28 00:58:18;;;;;;;3.38;1.63;;;4.50;99.90;;;;;;4842982;29;20083;-78
2021/03/28 01:00:59;;;;;;;2.55;1.17;;;4.40;99.90;;;;;;4860701;29;20055;-76
2021/03/28 01:04:07;;;;;;;5.35;2.55;;;4.40;99.90;;;;;;4863283;29;20072;-80
2021/03/28 01:06:48;;;;;;;3.97;1.60;;;4.30;99.90;;;;;;4856918;29;20533;-77
2021/03/28 01:09:27;;;;;;;1.80;1.20;;;4.40;99.90;;;;;;4864484;29;20082;-76
2021/03/28 01:12:28;;;;;;;3.15;1.40;;;4.40;99.90;;;;;;4870286;29;20042;-77
2021/03/28 01:15:38;;;;;;;3.63;1.48;;;4.40;99.90;;;;;;4863047;29;20073;-77
2021/03/28 01:18:18;;;;;;;2.63;1.17;;;4.40;99.90;;;;;;4863924;29;20092;-77
2021/03/28 01:21:28;;;;;;;2.35;1.83;;;4.40;99.90;;;;;;4879125;29;20045;-77
2021/03/28 01:24:14;;;;;;;2.75;1.35;;;4.40;99.90;;;;;;4864271;29;20136;-78
2021/03/28 01:26:59;;;;;;;4.75;1.40;;;4.30;99.90;;;;;;4863353;29;20539;-76
2021/03/28 01:29:30;;;;;;;3.20;1.27;;;4.20;99.90;;;;;;4878675;29;20048;-76
2021/03/28 01:32:28;;;;;;;2.63;1.30;;;4.20;99.90;;;;;;4862267;29;20057;-78
2021/03/28 01:35:10;;;;;;;2.28;1.30;;;4.30;99.90;;;;;;4878258;29;20556;-78
2021/03/28 01:38:01;;;;;;;2.47;1.48;;;4.30;99.90;;;;;;4862912;29;20063;-79
2021/03/28 01:40:37;;;;;;;3.92;2.03;;;4.20;99.90;;;;;;4862444;29;20095;-77
2021/03/28 01:43:34;;;;;;;5.38;2.03;;;4.20;99.90;;;;;;4878586;29;20045;-77
2021/03/28 01:46:31;;;;;;;4.30;2.33;;;4.10;99.90;;;;;;4880004;29;20097;-76
2021/03/28 01:49:22;;;;;;;4.57;1.80;;;4.00;99.90;;;;;;4881512;29;20148;-77
2021/03/28 01:52:28;;;;;;;6.35;2.47;;;4.00;99.90;;;;;;4863790;29;20100;-77
2021/03/28 01:55:08;;;;;;;4.00;2.17;;;4.00;99.90;;;;;;4852358;29;20508;-77
2021/03/28 01:58:09;;;;;;;4.35;1.83;;;3.90;99.90;;;;;;4882799;29;20053;-78
2021/03/28 02:00:41;;;;;;;5.78;2.42;;;3.90;99.90;;;;;;4865930;29;20417;-77
2021/03/28 02:03:23;;;;;;;3.55;2.20;;;3.80;99.90;;;;;;4882664;29;20045;-77
2021/03/28 02:05:58;;;;;;;3.53;2.22;;;3.70;99.90;;;;;;4881347;29;20053;-76
2021/03/28 02:08:24;;;;;;;5.25;2.67;;;3.70;99.90;;;;;;4865560;29;20473;-77
2021/03/28 02:11:04;;;;;;;5.68;2.33;;;3.70;99.90;;;;;;4865808;29;20061;-79
2021/03/28 02:13:55;;;;;;;7.28;3.15;;;3.70;99.90;;;;;;4866159;29;20081;-77
2021/03/28 02:16:40;;;;;;;3.67;2.38;;;3.70;99.90;;;;;;4882287;29;20056;-78
2021/03/28 02:19:51;;;;;;;7.38;2.65;;;3.70;99.90;;;;;;4881119;29;20049;-77
2021/03/28 02:22:39;;;;;;;6.72;3.15;;;3.70;99.90;;;;;;4834350;29;20045;-78
2021/03/28 02:25:18;;;;;;;6.00;2.40;;;3.70;99.90;;;;;;4865562;29;20149;-78
2021/03/28 02:27:53;;;;;;;5.63;2.38;;;3.70;99.90;;;;;;4881847;29;20056;-78
2021/03/28 02:30:22;;;;;;;7.57;2.85;;;3.80;99.90;;;;;;4865872;29;20078;-78
2021/03/28 02:32:49;;;;;;;4.75;2.65;;;3.80;99.90;;;;;;4880695;29;20081;-77
2021/03/28 02:35:57;;;;;;;4.60;2.42;;;3.80;99.90;;;;;;4881024;29;20055;-77
2021/03/28 02:38:57;;;;;;;4.05;2.47;;;3.80;99.90;;;;;;4880556;29;20045;-77
2021/03/28 02:41:55;;;;;;;5.25;2.40;;;3.70;99.90;;;;;;4865608;29;20056;-77
2021/03/28 02:44:49;;;;;;;5.60;2.63;;;3.70;99.90;;;;;;4865093;29;20088;-77
2021/03/28 02:47:36;;;;;;;9.93;2.70;;;3.70;99.90;;;;;;4865154;29;20049;-77
2021/03/28 02:50:39;;;;;;;3.78;2.00;;;3.80;99.90;;;;;;4880201;29;20057;-76
2021/03/28 02:53:32;;;;;;;7.10;2.83;;;3.90;99.90;;;;;;4865323;29;20064;-76
2021/03/28 02:56:35;;;;;;;6.18;1.85;;;3.90;99.90;;;;;;4865613;29;20145;-77
2021/03/28 02:59:25;;;;;;;3.60;1.70;;;3.80;99.90;;;;;;4880419;29;20215;-78
2021/03/28 03:02:24;;;;;;;4.68;2.00;;;3.90;99.90;;;;;;4864998;29;20053;-77
2021/03/28 03:05:07;;;;;;;7.93;2.67;;;3.90;99.90;;;;;;4864736;29;20068;-77
2021/03/28 03:07:45;;;;;;;4.13;1.85;;;3.90;99.90;;;;;;4864670;29;20053;-77
2021/03/28 03:10:42;;;;;;;6.70;2.35;;;4.00;99.90;;;;;;4864878;29;20073;-76
2021/03/28 03:13:32;;;;;;;4.13;3.00;;;4.00;99.90;;;;;;4880317;29;20049;-76
2021/03/28 03:16:24;;;;;;;3.72;2.08;;;4.00;99.90;;;;;;4880143;29;20052;-77
2021/03/28 03:19:17;;;;;;;7.45;1.90;;;4.00;99.90;;;;;;4865186;29;20045;-77
2021/03/28 03:21:59;;;;;;;6.03;2.00;;;4.10;99.90;;;;;;4880303;29;20060;-76
2021/03/28 03:24:37;;;;;;;4.80;2.33;;;4.10;99.90;;;;;;4880241;29;20053;-78
2021/03/28 03:27:32;;;;;;;3.40;2.00;;;4.10;99.90;;;;;;4880408;29;20449;-76
2021/03/28 03:30:17;;;;;;;2.75;2.30;;;4.20;99.90;;;;;;4864788;29;20104;-76
2021/03/28 03:33:17;;;;;;;5.20;2.00;;;4.20;99.90;;;;;;4864735;29;20045;-78
2021/03/28 03:36:16;;;;;;;6.15;2.33;;;4.20;99.90;;;;;;4879904;29;20041;-77
2021/03/28 03:39:01;;;;;;;3.50;2.42;;;4.20;99.90;;;;;;4800924;29;20046;-78
2021/03/28 03:41:57;;;;;;;4.15;2.58;;;4.20;99.90;;;;;;4879698;29;20076;-77
2021/03/28 03:45:14;;;;;;;4.90;2.38;;;4.20;99.90;;;;;;4864429;29;20069;-77
2021/03/28 03:48:09;;;;;;;6.68;2.53;;;4.30;99.90;;;;;;4879924;29;20517;-79
2021/03/28 03:50:54;;;;;;;6.03;2.53;;;4.30;99.90;;;;;;4864249;29;20090;-77
2021/03/28 03:53:54;;;;;;;4.05;2.55;;;4.30;99.90;;;;;;4880832;29;20049;-79
2021/03/28 03:56:58;;;;;;;4.03;2.33;;;4.20;99.90;;;;;;4881138;29;20412;-76
2021/03/28 04:00:02;;;;;;;6.68;2.00;;;4.20;99.90;;;;;;4864251;29;20082;-78
2021/03/28 04:03:01;;;;;;;7.60;2.58;;;4.10;99.90;;;;;;4881521;29;20049;-77
2021/03/28 04:05:47;;;;;;;3.67;2.58;;;4.10;99.90;;;;;;4881392;29;20053;-76
2021/03/28 04:08:26;;;;;;;9.60;4.45;;;4.10;99.90;;;;;;4878962;29;20051;-78
2021/03/28 04:11:38;;;;;;;5.25;3.00;;;4.10;99.90;;;;;;4879452;29;20449;-77
2021/03/28 04:14:47;;;;;;;3.88;1.65;;;4.00;99.90;;;;;;4864609;29;20049;-77
2021/03/28 04:17:27;;;;;;;5.70;2.25;;;4.00;99.90;;;;;;4879148;29;20069;-77
2021/03/28 04:20:05;;;;;;;4.82;2.00;;;4.00;99.90;;;;;;4863250;29;20501;-77
2021/03/28 04:23:02;;;;;;;3.47;2.60;;;4.00;99.90;;;;;;4863502;29;20104;-77
2021/03/28 04:25:34;;;;;;;5.68;2.70;;;3.90;99.90;;;;;;4879387;29;20041;-77
2021/03/28 04:28:24;;;;;;;4.75;2.85;;;3.90;99.90;;;;;;4863516;29;20057;-76
2021/03/28 04:30:57;;;;;;;8.40;5.38;;;3.80;99.90;;;;;;4879125;29;20063;-76
2021/03/28 04:33:46;;;;;;;5.90;3.20;;;3.80;99.90;;;;;;4879811;29;20064;-76
2021/03/28 04:36:36;;;;;;;5.28;3.92;;;3.80;99.90;;;;;;4878758;29;20045;-78
2021/03/28 04:39:24;;;;;;;7.10;4.57;;;3.90;99.90;;;;;;4863855;29;20053;-78
2021/03/28 04:42:06;;;;;;;5.50;3.10;;;3.90;99.90;;;;;;4863203;29;20059;-77
2021/03/28 04:45:07;;;;;;;7.40;3.33;;;3.90;99.90;;;;;;4860453;29;20147;-77
2021/03/28 04:47:53;;;;;;;5.47;3.47;;;3.80;99.90;;;;;;4865452;29;20585;-77
2021/03/28 04:50:19;;;;;;;6.00;3.35;;;3.90;99.90;;;;;;4860195;29;20409;-77
2021/03/28 04:53:17;;;;;;;4.82;2.97;;;3.90;99.90;;;;;;4859818;29;20056;-76
2021/03/28 04:56:07;;;;;;;5.38;2.85;;;4.00;99.90;;;;;;4875831;29;20064;-78
2021/03/28 04:58:57;;;;;;;5.15;2.97;;;4.00;99.90;;;;;;4875701;29;20521;-77
2021/03/28 05:01:34;;;;;;;3.65;2.88;;;4.10;99.90;;;;;;4859597;29;20143;-78
2021/03/28 05:04:34;;;;;;;4.63;3.00;;;4.10;99.90;;;;;;4875990;29;20049;-77
2021/03/28 05:07:42;;;;;;;5.05;2.58;;;4.00;99.90;;;;;;4860311;29;20068;-78
2021/03/28 05:10:50;;;;;;;9.23;2.90;;;4.00;99.90;;;;;;4874993;29;20089;-77
2021/03/28 05:13:55;;;;;;;6.72;2.58;;;3.90;99.90;;;;;;4875112;29;20132;-78
2021/03/28 05:16:51;;;;;;;4.38;2.58;;;4.10;99.90;;;;;;4875093;29;20049;-77
2021/03/28 05:19:22;;;;;;;6.13;2.80;;;4.10;99.90;;;;;;4875329;29;20045;-77
2021/03/28 05:22:28;;;;;;;2.65;1.95;;;4.10;99.90;;;;;;4878687;29;20136;-77
2021/03/28 05:25:44;;;;;;;3.50;2.00;;;4.10;99.90;;;;;;4879217;29;20045;-77
2021/03/28 05:28:54;;;;;;;7.80;1.98;;;4.10;99.90;;;;;;4862745;29;20051;-77
2021/03/28 05:32:03;;;;;;;5.82;1.60;;;4.00;99.90;;;;;;4878311;29;20080;-77
2021/03/28 05:35:11;;;;;;;4.43;2.05;;;3.90;99.90;;;;;;4878274;29;20079;-77
2021/03/28 05:37:57;;;;;;;2.45;1.50;;;3.80;99.90;;;;;;4863416;29;20132;-77
2021/03/28 05:40:35;;;;;;;5.63;1.52;;;3.80;99.90;;;;;;4862657;29;20069;-77
2021/03/28 05:43:37;;;;;;;3.08;1.30;;;3.80;99.90;;;;;;4877700;29;20074;-77
2021/03/28 05:46:26;;;;;;;2.03;1.30;;;3.80;99.90;;;;;;4878223;29;20098;-77
2021/03/28 05:49:24;;;;;;;3.45;1.90;;;3.80;99.90;;;;;;4877402;29;20048;-77
2021/03/28 05:52:29;;;;;;;3.75;1.60;;;3.80;99.90;;;;;;4877837;29;20400;-77
2021/03/28 05:55:12;;;;;;;2.88;1.45;;;3.80;99.90;;;;;;4878094;29;20045;-77
2021/03/28 05:58:02;;;;;;;2.63;1.70;;;3.80;99.90;;;;;;4878811;29;20059;-79
2021/03/28 06:00:48;;;;;;;2.83;1.42;;;3.70;99.90;;;;;;4878452;29;20136;-77
2021/03/28 06:03:48;;;;;;;7.80;1.90;;;3.90;99.90;;;;;;4879410;29;20097;-77
2021/03/28 06:06:55;;;;;;;4.20;1.73;;;3.90;99.90;;;;;;4862134;29;20049;-77
2021/03/28 06:09:54;;;;;;;4.07;1.90;;;4.00;99.90;;;;;;4862838;29;20060;-77
2021/03/28 06:12:45;;;;;;;6.72;2.38;;;3.90;99.90;;;;;;4878530;29;20050;-77
2021/03/28 06:15:47;;;;;;;4.57;2.00;;;3.90;99.90;;;;;;4861963;29;20383;-77
2021/03/28 06:18:31;;;;;;;4.72;2.30;;;4.00;99.90;;;;;;4846607;29;20589;-77
2021/03/28 06:21:43;;;;;;;4.15;2.30;;;4.00;99.90;;;;;;4854869;29;20046;-77
2021/03/28 06:24:28;;;;;;;7.65;2.70;;;4.10;99.90;;;;;;4835925;29;20503;-77
2021/03/28 06:27:24;;;;;;;3.90;2.03;;;4.20;99.90;;;;;;4837664;29;20117;-77
2021/03/28 06:30:44;;;;;;;4.57;1.90;;;4.40;99.90;;;;;;4834238;29;20164;-77
2021/03/28 06:33:22;;;;;;;7.68;4.53;;;4.50;99.90;;;;;;4770538;30;20075;-76
2021/03/28 06:36:13;;;;;;;5.15;1.90;;;4.60;99.90;;;;;;4754592;30;20528;-77
2021/03/28 06:39:17;;;;;;;3.10;1.88;;;4.70;99.90;;;;;;4844416;29;20153;-76
2021/03/28 06:42:07;;;;;;;4.88;2.40;;;4.80;99.90;;;;;;4841966;29;20079;-76
2021/03/28 06:44:39;;;;;;;5.50;2.00;;;4.90;99.90;;;;;;4835495;29;20046;-78
2021/03/28 06:47:25;;;;;;;3.97;1.83;;;5.00;99.90;;;;;;4853380;29;20113;-77
2021/03/28 06:50:40;;;;;;;5.68;1.85;;;5.00;99.90;;;;;;4850078;29;20132;-77
2021/03/28 06:53:21;;;;;;;3.80;1.95;;;5.10;99.90;;;;;;4838223;29;20046;-76
2021/03/28 06:55:52;;;;;;;3.05;1.80;;;5.20;99.90;;;;;;4835451;29;20083;-77
2021/03/28 06:58:44;;;;;;;4.72;2.30;;;5.30;99.90;;;;;;4853295;29;20469;-77
2021/03/28 07:01:22;;;;;;;3.80;2.00;;;5.30;99.90;;;;;;4852138;29;20076;-77
2021/03/28 07:04:18;;;;;;;8.27;2.63;;;5.40;99.90;;;;;;4854506;29;20132;-77
2021/03/28 07:06:47;;;;;;;4.70;2.63;;;5.50;99.90;;;;;;4836166;29;20486;-77
2021/03/28 07:09:44;;;;;;;6.63;2.55;;;5.50;99.90;;;;;;4830018;29;20050;-78
2021/03/28 07:12:45;;;;;;;5.15;2.03;;;5.50;99.90;;;;;;4841377;29;20072;-77
2021/03/28 07:15:41;;;;;;;2.95;1.58;;;5.60;99.90;;;;;;4838174;29;20145;-78
2021/03/28 07:18:26;;;;;;;3.33;1.60;;;5.60;99.90;;;;;;4810776;29;20537;-77
2021/03/28 07:21:04;;;;;;;3.05;1.58;;;5.70;99.90;;;;;;4849502;29;20293;-78
2021/03/28 07:24:02;;;;;;;3.97;1.58;;;5.70;99.90;;;;;;4851970;29;20137;-78
2021/03/28 07:27:07;;;;;;;4.05;1.80;;;5.70;99.90;;;;;;4879695;29;20041;-78
2021/03/28 07:30:21;;;;;;;2.97;1.75;;;5.80;99.90;;;;;;4855818;29;20045;-78
2021/03/28 07:33:14;;;;;;;4.07;1.80;;;5.90;99.90;;;;;;4824235;29;20050;-78
2021/03/28 07:36:05;;;;;;;6.63;2.38;;;6.00;99.90;;;;;;4823944;29;20129;-78
2021/03/28 07:38:50;;;;;;;4.55;1.83;;;6.10;99.90;;;;;;4838291;29;20077;-77
2021/03/28 07:41:40;;;;;;;4.65;2.05;;;6.30;99.90;;;;;;4858219;29;20047;-78
2021/03/28 07:44:14;;;;;;;5.95;2.22;;;6.40;99.90;;;;;;4840308;29;20041;-77
2021/03/28 07:47:38;;;;;;;7.85;2.20;;;6.60;99.90;;;;;;4850698;29;20581;-78
2021/03/28 07:50:34;;;;;;;3.88;1.98;;;6.70;99.90;;;;;;4772581;29;20090;-77
2021/03/28 07:53:46;;;;;;;5.13;1.85;;;6.90;99.90;;;;;;4786657;29;20547;-78
2021/03/28 07:56:38;;;;;;;6.85;1.67;;;7.00;99.90;;;;;;4854237;29;20497;-78
2021/03/28 07:59:19;;;;;;;7.78;2.13;;;7.10;99.90;;;;;;4838814;29;20118;-78
2021/03/28 08:02:03;;;;;;;3.90;1.80;;;7.20;99.90;;;;;;4824054;29;20518;-80
2021/03/28 08:05:12;;;;;;;3.17;1.60;;;7.40;99.90;;;;;;4824411;29;20042;-78
2021/03/28 08:07:49;;;;;;;6.20;2.10;;;7.50;99.90;;;;;;4824024;29;20145;-78
2021/03/28 08:10:32;;;;;;;6.38;1.60;;;7.60;99.90;;;;;;4824033;29;20453;-78
2021/03/28 08:13:34;;;;;;;6.05;2.15;;;7.70;99.90;;;;;;4824730;29;20476;-78
2021/03/28 08:16:29;;;;;;;7.15;2.20;;;7.80;99.90;;;;;;4824579;29;20049;-78
2021/03/28 08:19:36;;;;;;;5.05;1.83;;;7.90;99.90;;;;;;4824282;29;20460;-78
2021/03/28 08:22:52;;;;;;;4.50;1.65;;;8.10;99.90;;;;;;4824535;29;20148;-78
2021/03/28 08:25:54;;;;;;;5.13;2.00;;;8.20;99.90;;;;;;4824600;29;20586;-79
2021/03/28 08:28:40;;;;;;;5.85;2.13;;;8.40;99.90;;;;;;4838705;29;20577;-78
2021/03/28 08:31:26;;;;;;;5.50;2.97;;;8.50;99.90;;;;;;4824814;29;20049;-79
2021/03/28 08:34:33;;;;;;;5.97;2.80;;;8.50;99.90;;;;;;4824060;29;20077;-77
2021/03/28 08:38:02;;;;;;;7.45;1.98;;;8.50;98.80;;;;;;4824118;29;20145;-78
2021/03/28 08:40:53;;;;;;;6.43;1.50;;;8.50;99.70;;;;;;4786509;29;20157;-79
2021/03/28 08:43:55;;;;;;;7.05;1.77;;;8.60;99.90;;;;;;4824756;29;20042;-78
2021/03/28 08:47:03;;;;;;;7.63;2.63;;;8.60;94.30;;;;;;4824711;29;20149;-78
2021/03/28 08:49:40;;;;;;;6.97;1.38;;;8.80;97.20;;;;;;4824387;29;20099;-77
2021/03/28 08:52:10;;;;;;;4.10;1.73;;;8.90;95.20;;;;;;4823646;29;20149;-77
2021/03/28 08:55:03;;;;;;;5.88;1.70;;;9.00;94.10;;;;;;4854336;29;20145;-76
2021/03/28 08:57:54;;;;;;;6.45;1.50;;;9.10;91.00;;;;;;4845222;29;20050;-76
2021/03/28 09:00:48;;;;;;;6.03;1.40;;;9.10;82.10;;;;;;4835221;29;20081;-77
2021/03/28 09:04:14;;;;;;;4.75;1.40;;;9.10;79.40;;;;;;4844800;29;20103;-77
2021/03/28 09:07:16;;;;;;;3.55;1.40;;;9.20;82.30;;;;;;4761905;30;20616;-77
2021/03/28 09:09:57;;;;;;;5.22;1.40;;;9.10;82.50;;;;;;4839598;29;20066;-77
2021/03/28 09:12:34;;;;;;;6.05;1.60;;;9.20;83.30;;;;;;4840872;29;20540;-77
2021/03/28 09:15:21;;;;;;;5.90;1.25;;;9.30;81.50;;;;;;4860421;29;20069;-76
2021/03/28 09:18:23;;;;;;;3.65;1.10;;;9.40;82.20;;;;;;4865660;29;20137;-76
2021/03/28 09:21:30;;;;;;;4.35;1.25;;;9.50;81.90;;;;;;4852772;29;20056;-77
2021/03/28 09:24:31;;;;;;;4.40;1.45;;;9.60;81.50;;;;;;4841342;29;20049;-76
2021/03/28 09:27:16;;;;;;;2.67;1.30;;;9.80;77.70;;;;;;4833722;29;20054;-76
2021/03/28 09:30:10;;;;;;;5.05;1.48;;;10.00;78.60;;;;;;4850679;29;20048;-76
2021/03/28 09:32:56;;;;;;;;;;;10.10;77.60;;;;;;4844499;29;20049;-76
2021/03/28 09:35:47;;;;;;;3.67;1.30;;;10.20;73.00;;;;;;4823768;29;19928;-77
2021/03/28 09:38:47;;;;;;;2.70;1.40;;;10.20;74.90;;;;;;4851797;29;20104;-77
2021/03/28 09:42:01;;;;;;;2.80;1.45;;;10.10;75.50;;;;;;4838942;29;20059;-77
2021/03/28 09:44:37;;;;;;;4.55;1.63;;;10.10;74.80;;;;;;4870595;29;20050;-77
2021/03/28 09:47:36;;;;;;;3.25;1.25;;;10.00;75.80;;;;;;4871098;29;20652;-77
2021/03/28 09:50:34;;;;;;;6.88;2.00;;;9.90;74.80;;;;;;4845313;29;20060;-77
2021/03/28 09:53:40;;;;;;;5.93;1.10;;;9.90;75.70;;;;;;4871599;29;20041;-78
2021/03/28 09:56:44;;;;;;;7.25;1.98;;;10.00;74.80;;;;;;4883939;29;20519;-78
2021/03/28 09:59:40;;;;;;;6.90;1.73;;;10.20;74.50;;;;;;4883968;29;20083;-79
2021/03/28 10:02:59;;;;;;;3.53;1.30;;;10.40;75.60;;;;;;4884094;29;20045;-78
2021/03/28 10:05:32;;;;;;;8.57;1.58;;;10.50;72.30;;;;;;4826081;29;20046;-78
2021/03/28 10:08:12;;;;;;;5.30;1.52;;;10.70;73.20;;;;;;4811622;29;20050;-78
2021/03/28 10:11:03;;;;;;;7.47;1.35;;;10.70;72.10;;;;;;4826716;29;20521;-78
2021/03/28 10:13:45;;;;;;;6.07;1.80;;;10.70;69.30;;;;;;4850169;29;20061;-79
2021/03/28 10:16:26;;;;;;;4.10;1.98;;;10.80;69.20;;;;;;4865202;29;20462;-78
2021/03/28 10:19:05;;;;;;;3.45;1.50;;;10.80;68.20;;;;;;4864484;29;20501;-78
2021/03/28 10:21:37;;;;;;;4.22;1.50;;;11.00;68.40;;;;;;4864834;29;20076;-78
2021/03/28 10:24:56;;;;;;;3.78;1.67;;;10.90;67.10;;;;;;4849547;29;20082;-78
2021/03/28 10:28:05;;;;;;;7.28;1.85;;;11.00;66.50;;;;;;4849081;29;20057;-78
2021/03/28 10:30:42;;;;;;;4.55;1.92;;;10.90;68.20;;;;;;4850837;29;20056;-78
2021/03/28 10:33:21;;;;;;;6.03;1.40;;;10.90;65.20;;;;;;4883154;29;20105;-78
2021/03/28 10:36:12;;;;;;;5.30;1.23;;;11.00;65.70;;;;;;4867596;29;20421;-78
2021/03/28 10:38:56;;;;;;;6.32;1.90;;;10.90;64.90;;;;;;4866748;29;20081;-78
2021/03/28 10:41:52;;;;;;;3.33;1.40;;;10.90;67.10;;;;;;4861451;29;20513;-79
2021/03/28 10:44:50;;;;;;;5.45;1.45;;;11.00;65.00;;;;;;4831370;29;20061;-81
2021/03/28 10:47:49;;;;;;;7.10;1.45;;;10.90;65.80;;;;;;4833009;29;20046;-80
2021/03/28 10:50:52;;;;;;;4.90;1.70;;;11.00;68.40;;;;;;4847485;29;20049;-80
2021/03/28 10:53:55;;;;;;;3.00;1.40;;;11.20;67.80;;;;;;4831275;29;20050;-78
2021/03/28 10:56:47;;;;;;;5.38;1.45;;;11.20;66.40;;;;;;4828165;29;20125;-81
2021/03/28 10:59:32;;;;;;;6.63;1.80;;;11.20;67.80;;;;;;4815239;29;20073;-80
2021/03/28 11:02:41;;;;;;;4.30;1.65;;;11.10;67.10;;;;;;4908306;24;20517;-80
2021/03/28 11:05:29;;;;;;;5.15;1.42;;;11.20;65.80;;;;;;4864151;29;20101;-81
2021/03/28 11:08:15;;;;;;;6.78;2.03;;;11.20;66.20;;;;;;4879394;29;20049;-81
2021/03/28 11:11:22;;;;;;;5.35;1.63;;;11.40;69.00;;;;;;4857113;29;20418;-79
2021/03/28 11:14:18;;;;;;;4.30;1.60;;;11.50;65.60;;;;;;4847925;29;20453;-79
2021/03/28 11:17:10;;;;;;;5.18;1.70;;;11.60;65.90;;;;;;4845674;29;20140;-80
2021/03/28 11:29:12;;;;;;;3.45;1.70;;;11.70;64.10;;;;;;4955525;23;20048;-79
2021/03/28 11:38:06;;;;;;;5.93;1.42;;;11.90;63.70;;;;;;5014376;23;20053;-80
2021/03/28 11:40:40;;;;;;;4.70;1.88;;;12.00;65.50;;;;;;4861131;29;20046;-80
2021/03/28 11:43:11;;;;;;;3.67;1.50;;;12.10;65.20;;;;;;4861528;29;20458;-80
2021/03/28 11:45:46;;;;;;;6.15;1.60;;;12.10;62.90;;;;;;4860512;29;20045;-80
2021/03/28 11:48:23;;;;;;;5.07;1.55;;;12.10;64.20;;;;;;4848049;29;20060;-80
2021/03/28 11:50:51;;;;;;;7.30;1.80;;;12.20;62.70;;;;;;4851326;29;20572;-79
2021/03/28 11:53:23;;;;;;;3.78;1.50;;;12.20;63.80;;;;;;4851619;29;20113;-77
2021/03/28 11:55:56;;;;;;;5.47;1.80;;;12.30;65.90;;;;;;4865380;29;20069;-77
2021/03/28 11:58:39;;;;;;;3.40;1.63;;;12.30;62.60;;;;;;4870895;29;20041;-77
2021/03/28 12:01:06;;;;;;;4.10;1.67;;;12.30;60.90;;;;;;4861592;29;20067;-76
2021/03/28 12:03:40;;;;;;;3.42;1.40;;;12.30;62.50;;;;;;4862469;29;20418;-76
2021/03/28 12:06:17;;;;;;;3.55;1.83;;;12.40;60.40;;;;;;4846822;29;20417;-77
2021/03/28 12:08:49;;;;;;;7.65;2.80;;;12.50;62.50;;;;;;4861878;29;20048;-77
2021/03/28 12:11:42;;;;;;;3.13;1.40;;;12.50;61.90;;;;;;4846801;29;20135;-76
2021/03/28 12:14:13;;;;;;;5.05;2.10;;;12.60;61.60;;;;;;4876272;29;20073;-77
2021/03/28 12:17:10;;;;;;;4.68;1.50;;;12.60;59.60;;;;;;4861900;29;20130;-77
2021/03/28 12:19:42;;;;;;;6.45;1.67;;;12.60;59.80;;;;;;4861716;29;20053;-77
2021/03/28 12:22:38;;;;;;;3.72;1.50;;;12.60;58.70;;;;;;4862078;29;20093;-77
2021/03/28 12:25:16;;;;;;;3.72;1.40;;;12.70;57.80;;;;;;4847459;29;20056;-77
2021/03/28 12:27:57;;;;;;;4.32;1.45;;;12.70;60.10;;;;;;4868472;29;20033;-77
2021/03/28 12:30:37;;;;;;;3.78;1.45;;;12.80;57.90;;;;;;4872049;29;20049;-77
2021/03/28 12:33:42;;;;;;;3.20;1.45;;;12.80;60.90;;;;;;4849667;29;20136;-77
2021/03/28 12:36:17;;;;;;;4.43;1.77;;;13.00;58.30;;;;;;4852867;29;20057;-77
2021/03/28 12:38:56;;;;;;;3.38;1.45;;;13.10;57.60;;;;;;4875938;29;20053;-76
2021/03/28 12:41:32;;;;;;;6.78;2.53;;;13.10;56.00;;;;;;4878841;29;20517;-77
2021/03/28 12:44:07;;;;;;;2.83;1.38;;;13.00;57.00;;;;;;4847159;29;20053;-77
2021/03/28 12:46:47;;;;;;;4.32;1.40;;;13.10;56.60;;;;;;4861105;29;20057;-77
2021/03/28 12:49:31;;;;;;;4.53;1.55;;;13.10;57.10;;;;;;4861644;29;20052;-76
2021/03/28 12:52:21;;;;;;;5.38;1.65;;;13.10;58.10;;;;;;4847950;29;20050;-77
2021/03/28 12:54:52;;;;;;;3.85;1.52;;;13.20;56.20;;;;;;4860530;29;20045;-77
2021/03/28 12:57:38;;;;;;;3.95;1.40;;;13.20;57.90;;;;;;4846009;29;20125;-77
2021/03/28 13:00:35;;;;;;;3.78;1.33;;;13.30;56.20;;;;;;4860743;29;20080;-77
2021/03/28 13:03:20;;;;;;;4.88;1.75;;;13.40;56.20;;;;;;4841031;29;20053;-77
2021/03/28 13:06:05;;;;;;;3.65;1.50;;;13.40;56.60;;;;;;4865250;29;20062;-80
2021/03/28 13:08:39;;;;;;;8.52;2.35;;;13.40;55.60;;;;;;4881684;29;20097;-77
2021/03/28 13:11:07;;;;;;;5.38;1.80;;;13.50;56.00;;;;;;4859900;29;20067;-76
2021/03/28 13:13:50;;;;;;;4.20;1.50;;;13.50;55.00;;;;;;4874710;29;20521;-78
2021/03/28 13:16:28;;;;;;;4.43;1.60;;;13.60;54.70;;;;;;4876121;29;20052;-78
2021/03/28 13:18:57;;;;;;;3.65;1.70;;;13.70;54.50;;;;;;4844648;29;20128;-77
2021/03/28 13:21:38;;;;;;;5.28;1.75;;;13.70;54.60;;;;;;4853992;29;20045;-78
2021/03/28 13:24:16;;;;;;;3.83;1.40;;;13.80;55.40;;;;;;4834275;29;20055;-78
2021/03/28 13:27:04;;;;;;;2.78;1.48;;;13.90;56.30;;;;;;4846846;29;20073;-77
2021/03/28 13:29:52;;;;;;;5.10;1.70;;;13.90;54.10;;;;;;4874482;29;20516;-77
2021/03/28 13:32:47;;;;;;;4.28;1.50;;;14.00;54.80;;;;;;4860080;29;20064;-77
2021/03/28 13:35:34;;;;;;;4.63;1.40;;;14.10;55.60;;;;;;4871646;29;20053;-76
2021/03/28 13:38:35;;;;;;;2.42;1.30;;;14.20;52.80;;;;;;4864354;29;20049;-77
2021/03/28 13:41:23;;;;;;;4.45;1.55;;;14.10;51.80;;;;;;4864984;29;20053;-78
2021/03/28 13:44:17;;;;;;;3.65;1.67;;;14.10;51.20;;;;;;4867623;29;20469;-77
2021/03/28 13:46:52;;;;;;;3.75;1.83;;;14.10;49.90;;;;;;4863710;29;20059;-77
2021/03/28 13:49:42;;;;;;;3.80;1.83;;;14.10;50.80;;;;;;4883572;29;20049;-78
2021/03/28 13:52:18;;;;;;;7.05;1.95;;;14.10;51.20;;;;;;4868977;29;20072;-78
2021/03/28 13:55:11;;;;;;;3.25;1.80;;;14.10;50.20;;;;;;4884114;29;20565;-77
2021/03/28 13:57:43;;;;;;;2.50;1.38;;;14.30;52.20;;;;;;4869529;29;20087;-77
2021/03/28 14:00:20;;;;;;;5.53;1.42;;;14.40;52.30;;;;;;4861911;29;20132;-77
2021/03/28 14:02:53;;;;;;;4.38;2.03;;;14.50;50.60;;;;;;4845998;29;20046;-77
2021/03/28 14:05:31;;;;;;;4.07;1.50;;;14.40;51.30;;;;;;4848128;29;20045;-77
2021/03/28 14:08:03;;;;;;;4.72;1.65;;;14.30;50.80;;;;;;4889668;29;20042;-76
2021/03/28 14:10:34;;;;;;;4.43;2.40;;;14.40;50.80;;;;;;4870798;29;20632;-77
2021/03/28 14:13:17;;;;;;;2.97;2.00;;;14.40;51.00;;;;;;4850412;29;20068;-76
2021/03/28 14:16:00;;;;;;;6.15;2.10;;;14.50;50.00;;;;;;4865844;29;20051;-76
2021/03/28 14:18:47;;;;;;;5.18;1.60;;;14.50;51.40;;;;;;4878552;29;20045;-75
2021/03/28 14:21:26;;;;;;;3.05;1.48;;;14.50;49.20;;;;;;4878666;29;20141;-76
2021/03/28 14:24:19;;;;;;;4.57;1.67;;;14.60;48.70;;;;;;4878558;29;20049;-76
2021/03/28 14:26:53;;;;;;;4.45;1.50;;;14.80;49.90;;;;;;4878481;29;20475;-76
2021/03/28 14:29:38;;;;;;;2.78;1.23;;;15.00;51.40;;;;;;4863529;29;20097;-76
2021/03/28 14:32:12;;;;;;;2.70;1.50;;;15.00;48.60;;;;;;4878246;29;20070;-77
2021/03/28 14:34:49;;;;;;;3.00;1.50;;;15.10;49.20;;;;;;4869537;29;20045;-76
2021/03/28 14:37:29;;;;;;;4.15;1.60;;;15.10;48.70;;;;;;4861257;29;20049;-77
2021/03/28 14:40:23;;;;;;;4.63;1.60;;;15.10;49.10;;;;;;4860061;29;20060;-76
2021/03/28 14:43:03;;;;;;;4.15;2.03;;;14.90;48.20;;;;;;4845972;29;20068;-76
2021/03/28 14:45:47;;;;;;;4.80;1.75;;;15.00;48.20;;;;;;4860351;29;20121;-76
2021/03/28 14:48:20;;;;;;;4.78;1.90;;;15.20;48.30;;;;;;4860137;29;20575;-76
2021/03/28 14:50:57;;;;;;;4.35;1.50;;;15.40;47.90;;;;;;4859708;29;20060;-76
2021/03/28 14:54:06;;;;;;;5.53;1.50;;;15.70;47.30;;;;;;4859230;29;20053;-76
2021/03/28 14:56:48;;;;;;;3.47;1.35;;;15.80;47.20;;;;;;4860050;29;20049;-76
2021/03/28 14:59:45;;;;;;;2.90;1.30;;;15.90;46.30;;;;;;4859854;29;20062;-77
2021/03/28 15:03:07;;;;;;;3.78;1.73;;;16.00;45.50;;;;;;4845850;29;20045;-76